Terminal Aerodrome Forecast
Issued by NWS

Home | Current Version | Previous Version | Text Only | Print | Product List | Glossary Off
Versions: 1 2 3 4 5 6 7 8 9 10 11 12 13 14 15 16 17 18 19 20

000
FTUS43 KABR 140200 AAB
TAFATY
TAF AMD
KATY 140202Z 1402/1424 36023G30KT P6SM SCT025
     FM140400 35017KT P6SM SCT030
     FM141500 34016KT P6SM BKN090=

USA.gov is the U.S. government's official web portal to all federal, state and local government web resources and services.